Tiempo atmosférico en la estación meteorológica de Nuñomoral, Cáceres (475 m.)



Fecha
DESCASC
Temp. máxima en grados centígrados (hora)
DESCASC
Temp. mínima en grados centígrados (hora)
DESCASC
Temp. media en grados centígrados
DESCASC
Racha de viento máxima en m/sg (hora)
DESCASC
Velocidad máxima media en intervalos de 10 minutos(hora)
DESCASC
Precipitaciones diarias en mm
DESCASC
Precipitaciones de 00:00 a 06:00 en mm
DESCASC
Precipitaciones de 06:00 a 12:00 en mm
DESCASC
Precipitaciones de 12:00 a 18:00 en mm
DESCASC
Precipitaciones de 18:00 a 24:00 en mm
DESCASC
20-01-2019 11.2 (15:50) 4.7 (00:00) 7.9 10 (06:30) 5.28 (10:00) 4 4 0 0 0
19-01-2019 4.7 (22:30) -2.7 (05:00) 1 3.33 (13:50) 1.39 (13:50) 9.2 0 1.4 4 3.8
18-01-2019 8.7 (16:20) -4 (-00:0) 2.3 5 (17:30) 2.78 (16:40) 0 0 0 0 0
17-01-2019 11.4 (17:00) -1.1 (-00:0) 5.1 10.28 (08:40) 4.44 (08:40) 0 0 0 0 0
16-01-2019 8.8 (15:40) -3.3 (-00:0) 2.8 6.11 (17:00) 3.33 (14:30) 0 0 0 0 0
15-01-2019 16.9 (16:20) -3.2 (-00:0) 6.8 3.06 (16:00) 1.39 (13:50) 0 0 0 0 0
14-01-2019 17 (16:30) -2.9 (-00:0) 7 3.61 (15:30) 1.94 (13:50) 0 0 0 0 0
13-01-2019 17.3 (15:40) -3.3 (-00:0) 7 5 (13:20) 3.33 (13:30) 0 0 0 0 0
12-01-2019 11.4 (14:50) -4.2 (-00:0) 3.6 5 (16:00) 3.33 (16:00) 0 0 0 0 0
11-01-2019 10.6 (15:10) -4.2 (-00:0) 3.2 8.06 (11:10) 4.17 (16:10) 0 0 0 0 0
10-01-2019 12.8 (16:00) -1.2 (-00:0) 5.8 10.28 (11:00) 5.56 (12:20) 0 0 0 0 0
09-01-2019 17.1 (14:50) 1.3 (00:00) 9.2 8.06 (12:50) 4.72 (12:50) 0 0 0 0 0
08-01-2019 17.1 (15:20) -3.7 (-00:0) 6.7 3.61 (23:00) 1.94 (17:00) 0 0 0 0 0
07-01-2019 17.5 (14:20) -4.3 (-00:0) 6.6 10.56 (12:40) 5.56 (13:30) 0 0 0 0 0
06-01-2019 17.9 (16:00) -4.8 (-00:0) 6.5 7.78 (14:50) 3.89 (14:50) 0.2 0 0.2 0 0
05-01-2019 14.7 (16:00) -4.4 (-00:0) 5.1 3.61 (17:10) 2.22 (17:10) 0 0 0 0 0
04-01-2019 14.3 (16:10) -4.1 (-00:0) 5.1 3.06 (17:30) 1.94 (18:00) 0.2 0 0.2 0 0
03-01-2019 13.9 (16:20) -4.4 (-00:0) 4.7 2.5 (14:50) 1.39 (14:40) 0 0 0 0 0
02-01-2019 17.1 (15:20) -2 (-00:0) 7.6 5.28 (16:10) 3.06 (16:20) 0 0 0 0 0
01-01-2019 16.7 (15:20) -3.6 (-00:0) 6.6 4.72 (16:30) 2.5 (16:30) 0 0 0 0 0
31-12-2018 15.9 (15:40) -3.3 (-00:0) 6.3 3.33 (17:30) 2.22 (17:30) 0.2 0 0.2 0 0
30-12-2018 15.5 (15:50) -2.3 (-00:0) 6.6 3.06 (17:20) 1.67 (17:20) 0 0 0 0 0
29-12-2018 14.9 (15:50) 0.5 (00:00) 7.7 5.83 (00:10) 3.06 (00:10) 0 0 0 0 0
28-12-2018 15.6 (15:10) 3.7 (00:00) 9.7 8.33 (22:00) 3.89 (13:40) 0 0 0 0 0
27-12-2018 13.9 (16:00) -2 (-00:0) 5.9 5.83 (20:50) 2.78 (22:20) 0 0 0 0 0
26-12-2018 14.5 (15:40) -1.4 (-00:0) 6.6 2.78 (17:50) 1.67 (12:40) 0.2 0 0.2 0 0
25-12-2018 12.9 (15:50) 0.4 (00:00) 6.6 2.22 (15:20) 1.39 (15:20) 0 0 0 0 0
24-12-2018 13.9 (15:10) -1.2 (09:10) 6.3 2.22 (18:40) 1.39 (18:40) 0 0 0 0 0
23-12-2018 12.4 (15:00) 2.3 (00:00) 7.3 2.78 (15:10) 1.67 (01:10) 0 0 0 0 0

Gráficas

Temp. máximas Temp. mínimas Temp. medias Precipitaciones Rachas de viento máximas Velocidades máximas media en intervalos de 10 minutos

Datos horarios

Fecha y hora oficial Temperatura (ºC) Velocidad del viento (km/h) Dirección del viento Racha (km/h) Dirección de racha Precipitación (mm) Presión (hPa) Tendencia (hPa) Humedad (%)
2019-01-21 23:00:00 0.1 3 Noroeste 8 Oeste 0 -- -- 92
2019-01-21 22:00:00 0.3 4 Noroeste 9 Oeste 0 -- -- 90
2019-01-21 21:00:00 1.1 2 Norte 8 Noroeste 0 -- -- 87
2019-01-21 20:00:00 2.7 2 Noroeste 6 Noroeste 0 -- -- 83
2019-01-21 19:00:00 4.9 3 Noroeste 7 Norte 0 -- -- 75
2019-01-21 18:00:00 8.6 2 Sudeste 15 Norte 0 -- -- 60
2019-01-21 17:00:00 11.1 4 Este 18 Sudeste 0 -- -- 48
2019-01-21 16:00:00 10.6 4 Sudeste 16 Este 0 -- -- 59
2019-01-21 15:00:00 11 5 Este 17 Norte 0 -- -- 49
2019-01-21 14:00:00 10 5 Sur 19 Sudoeste 0 -- -- 61
2019-01-21 13:00:00 9 12 Oeste 29 Sudoeste 0 -- -- 63
2019-01-21 12:00:00 9.1 4 Sudeste 12 Este 0 -- -- 66
2019-01-21 11:00:00 4.7 0 Calma 8 Norte 0 -- -- 86
2019-01-21 10:00:00 1.3 3 Norte 9 Norte 0 -- -- 95
2019-01-21 09:00:00 1 4 Noroeste 18 Oeste 0 -- -- 91
2019-01-21 08:00:00 0.2 4 Norte 10 Norte 0 -- -- 94
2019-01-21 07:00:00 1.1 6 Norte 11 Oeste 0 -- -- 91
2019-01-21 06:00:00 3.4 7 Oeste 17 Oeste 0 -- -- 87
2019-01-21 05:00:00 3.7 10 Oeste 16 Sudoeste 0 -- -- 88
2019-01-21 04:00:00 3.1 8 Oeste 19 Oeste 0 -- -- 91
2019-01-21 03:00:00 2.3 5 Noroeste 10 Noroeste 0 -- -- 92
2019-01-21 02:00:00 2.7 4 Norte 10 Norte 0 -- -- 90
2019-01-21 01:00:00 4.7 4 Noroeste 21 Oeste 0 -- -- 83
2019-01-21 00:00:00 6.8 13 Oeste 28 Sudoeste 0 -- -- 76
2019-01-20 23:00:00 7.4 10 Oeste 16 Oeste 0 -- -- 75
2019-01-20 22:00:00 8 12 Oeste 18 Oeste 0 -- -- 72
2019-01-20 21:00:00 8.5 5 Oeste 21 Oeste 0 -- -- 70
2019-01-20 20:00:00 8.4 4 Oeste 19 Oeste 0 -- -- 71
2019-01-20 19:00:00 8.4 5 Noroeste 15 Noroeste 0 -- -- 71
2019-01-20 18:00:00 9.9 5 Oeste 15 Oeste 0 -- -- 65
2019-01-20 17:00:00 10.9 8 Oeste 22 Noroeste 0 -- -- 59
2019-01-20 16:00:00 11.1 7 Noroeste 22 Norte 0 -- -- 59
2019-01-20 15:00:00 10.9 6 Noroeste 26 Norte 0 -- -- 56
2019-01-20 14:00:00 10.6 11 Noroeste 28 Noroeste 0 -- -- 59
2019-01-20 13:00:00 10.5 9 Oeste 24 Noroeste 0 -- -- 61
2019-01-20 12:00:00 8.5 15 Sudoeste 28 Oeste 0 -- -- 69
2019-01-20 11:00:00 7.5 14 Sudoeste 28 Oeste 0 -- -- 73
2019-01-20 10:00:00 6.8 19 Sudoeste 29 Sudoeste 0 -- -- 78
2019-01-20 09:00:00 6.4 14 Sudoeste 26 Sudoeste 0 -- -- 80
2019-01-20 08:00:00 7.1 9 Oeste 28 Oeste 0 -- -- 78
2019-01-20 07:00:00 7.8 14 Oeste 36 Sudoeste 0 -- -- 80
2019-01-20 06:00:00 8.3 15 Oeste 32 Oeste 0 -- -- 82
2019-01-20 05:00:00 8.2 14 Oeste 25 Sudoeste 0.2 -- -- 95
2019-01-20 04:00:00 5.2 2 Sudeste 6 Sudeste 0.8 -- -- 99
2019-01-20 03:00:00 5.1 0 Calma 5 Oeste 1 -- -- 99
2019-01-20 02:00:00 5.1 8 Oeste 14 Oeste 1.6 -- -- 99
2019-01-20 01:00:00 4.8 2 Oeste 4 Oeste 0.4 -- -- 99
2019-01-20 00:00:00 4.7 0 Calma 5 Sudeste 2 -- -- 99
2019-01-19 23:00:00 4.7 0 Calma 6 Sur 0.4 -- -- 99
2019-01-19 22:00:00 4.6 0 Calma 4 Norte 1 -- -- 98
2019-01-19 21:00:00 4.5 0 Calma 3 Norte 0.2 -- -- 98
2019-01-19 20:00:00 4.5 0 Calma 5 Sur 0 -- -- 98
2019-01-19 19:00:00 4.5 0 Calma 4 Sur 0.2 -- -- 98
2019-01-19 18:00:00 4.6 0 Calma 4 Este 0 -- -- 97
2019-01-19 17:00:00 4.6 0 Calma 9 Este 0.8 -- -- 97
2019-01-19 16:00:00 4.5 3 Nordeste 9 Este 0.8 -- -- 97
2019-01-19 15:00:00 4.3 0 Calma 6 Nordeste 0.2 -- -- 97
2019-01-19 14:00:00 3.9 4 Este 12 Sudeste 1 -- -- 97
2019-01-19 13:00:00 3.5 3 Este 9 Este 1.2 -- -- 97
2019-01-19 12:00:00 2.7 3 Este 6 Este 1.2 -- -- 97
2019-01-19 11:00:00 2.2 0 Calma 5 Sudeste 0.2 -- -- 98
2019-01-19 10:00:00 0.5 0 Calma 7 Este 0 -- -- 98
2019-01-19 09:00:00 -0.3 0 Calma 4 Norte 0 -- -- 98
2019-01-19 08:00:00 -0.9 0 Calma 3 Norte 0 -- -- 97
2019-01-19 07:00:00 -1.8 0 Calma 2 Sudeste 0 -- -- 97
2019-01-19 06:00:00 -2.4 0 Calma 3 Norte 0 -- -- 96
2019-01-19 05:00:00 -2.7 0 Calma 4 Sudeste 0 -- -- 95
2019-01-19 04:00:00 -1.6 3 Noroeste 6 Norte 0 -- -- 96
2019-01-19 03:00:00 -2.1 2 Noroeste 4 Noroeste 0 -- -- 95
2019-01-19 02:00:00 -1.9 0 Calma 5 Norte 0 -- -- 94
2019-01-19 01:00:00 -1.2 0 Calma 6 Norte 0 -- -- 93
2019-01-19 00:00:00 -0.1 3 Noroeste 5 Noroeste 0 -- -- 91
2019-01-18 23:00:00 1.4 2 Norte 6 Norte 0 -- -- 87
2019-01-18 22:00:00 3.1 2 Norte 6 Norte 0 -- -- 82
2019-01-18 21:00:00 5.4 0 Calma 4 Oeste 0 -- -- 76
2019-01-18 20:00:00 6.5 0 Calma 16 Oeste 0 -- -- 71
2019-01-18 19:00:00 7 4 Oeste 16 Noroeste 0 -- -- 69
2019-01-18 18:00:00 7.7 9 Noroeste 18 Noroeste 0 -- -- 65
2019-01-18 17:00:00 8.6 8 Noroeste 17 Oeste 0 -- -- 61
2019-01-18 16:00:00 8.3 4 Este 8 Este 0 -- -- 62
2019-01-18 15:00:00 7.2 3 Sudeste 6 Sudeste 0 -- -- 67
2019-01-18 14:00:00 5.7 3 Este 6 Este 0 -- -- 73
2019-01-18 13:00:00 4.1 0 Calma 4 Sudeste 0 -- -- 77
2019-01-18 12:00:00 1.7 0 Calma 2 Sudeste 0 -- -- 93
2019-01-18 11:00:00 -1 0 Calma 4 Sudeste 0 -- -- 98
2019-01-18 10:00:00 -3 0 Calma 2 Norte 0 -- -- 97
2019-01-18 09:00:00 -3.9 0 Calma 4 Norte 0 -- -- 95
2019-01-18 08:00:00 -3.7 0 Calma 5 Norte 0 -- -- 95
2019-01-18 07:00:00 -3.3 2 Noroeste 3 Norte 0 -- -- 96
2019-01-18 06:00:00 -3.4 0 Calma 3 Norte 0 -- -- 95
2019-01-18 05:00:00 -2.8 0 Calma 6 Noroeste 0 -- -- 94
2019-01-18 04:00:00 -2.2 4 Norte 6 Noroeste 0 -- -- 95
2019-01-18 03:00:00 -2 2 Noroeste 9 Norte 0 -- -- 94
2019-01-18 02:00:00 -1.5 5 Noroeste 9 Oeste 0 -- -- 95
2019-01-18 01:00:00 -1.8 2 Noroeste 6 Noroeste 0 -- -- 94
2019-01-18 00:00:00 -1.1 4 Noroeste 8 Oeste 0 -- -- 94
2019-01-17 23:00:00 -0.5 3 Noroeste 7 Norte 0 -- -- 93
2019-01-17 22:00:00 0.3 3 Oeste 5 Noroeste 0 -- -- 90
2019-01-17 21:00:00 1.6 3 Noroeste 5 Oeste 0 -- -- 86
2019-01-17 20:00:00 3 3 Noroeste 4 Oeste 0 -- -- 84
2019-01-17 19:00:00 5.1 0 Calma 5 Oeste 0 -- -- 76
2019-01-17 18:00:00 8.8 0 Calma 8 Oeste 0 -- -- 63
2019-01-17 17:00:00 11.4 3 Sudoeste 19 Este 0 -- -- 54
2019-01-17 16:00:00 11 9 Este 19 Sudeste 0 -- -- 55
2019-01-17 15:00:00 9.5 2 Este 13 Nordeste 0 -- -- 63
2019-01-17 14:00:00 9.3 8 Nordeste 18 Norte 0 -- -- 65
2019-01-17 13:00:00 9.7 5 Oeste 16 Oeste 0 -- -- 66
2019-01-17 12:00:00 8.7 8 Oeste 26 Oeste 0 -- -- 71
2019-01-17 11:00:00 8.2 12 Sudoeste 21 Sudoeste 0 -- -- 72
2019-01-17 10:00:00 6.9 10 Oeste 26 Oeste 0 -- -- 80
2019-01-17 09:00:00 6.4 14 Sudoeste 37 Oeste 0 -- -- 82
2019-01-17 08:00:00 5.7 6 Oeste 26 Oeste 0 -- -- 80
2019-01-17 07:00:00 6.5 13 Sudoeste 22 Noroeste 0 -- -- 78
2019-01-17 06:00:00 5.8 4 Oeste 21 Oeste 0 -- -- 84
2019-01-17 05:00:00 2.3 3 Este 5 Este 0 -- -- 95
2019-01-17 04:00:00 3.7 2 Este 5 Este 0 -- -- 95
2019-01-17 03:00:00 4.2 0 Calma 3 Sudeste 0 -- -- 95
2019-01-17 02:00:00 4.5 0 Calma 3 Sudeste 0 -- -- 95
2019-01-17 01:00:00 4.6 0 Calma 3 Sudeste 0 -- -- 95
2019-01-17 00:00:00 5 0 Calma 3 Sudeste 0 -- -- 93
2019-01-16 23:00:00 5.1 2 Este 4 Este 0 -- -- 91
2019-01-16 22:00:00 5.2 0 Calma 2 Oeste 0 -- -- 91
2019-01-16 21:00:00 5.3 0 Calma 2 Este 0 -- -- 89
2019-01-16 20:00:00 5.6 0 Calma 3 Sudeste 0 -- -- 88
2019-01-16 19:00:00 6.5 0 Calma 6 Sudeste 0 -- -- 86
2019-01-16 18:00:00 6.9 4 Nordeste 18 Este 0 -- -- 85
2019-01-16 17:00:00 7.7 10 Este 22 Este 0 -- -- 82
2019-01-16 16:00:00 8.4 10 Este 17 Sudeste 0 -- -- 77
2019-01-16 15:00:00 8.3 11 Este 19 Este 0 -- -- 78
2019-01-16 14:00:00 7.9 9 Este 15 Este 0 -- -- 81
2019-01-16 13:00:00 5.7 7 Este 13 Este 0 -- -- 88